Time;durP1;ratioP1;P1;durP2;ratioP2;P2;SDS_P1;SDS_P2;PMS_P1;PMS_P2;Temp;Humidity;BMP_temperature;BMP_pressure;BME280_temperature;BME280_humidity;BME280_pressure;Samples;Min_cycle;Max_cycle;Signal;HPM_P1;HPM_P2
2022/07/01 00:00:51;;;;;;;12.00;8.68;;;;;;;;;;5051826;28;20391;-58
2022/07/01 00:03:17;;;;;;;11.68;9.27;;;;;;;;;;5034594;28;20025;-59
2022/07/01 00:05:43;;;;;;;11.27;8.50;;;;;;;;;;5032505;28;20030;-58
2022/07/01 00:08:09;;;;;;;12.23;8.88;;;;;;;;;;5032772;28;20117;-57
2022/07/01 00:10:37;;;;;;;11.43;8.48;;;;;;;;;;5032777;28;20033;-57
2022/07/01 00:13:03;;;;;;;12.68;9.35;;;;;;;;;;5033089;28;20029;-57
2022/07/01 00:15:29;;;;;;;10.52;8.48;;;;;;;;;;5032297;28;20500;-59
2022/07/01 00:17:55;;;;;;;12.48;9.95;;;;;;;;;;5032907;28;20100;-57
2022/07/01 00:20:21;;;;;;;13.93;10.07;;;;;;;;;;5032108;28;20076;-58
2022/07/01 00:22:47;;;;;;;12.60;9.32;;;;;;;;;;5030482;28;20567;-57
2022/07/01 00:25:13;;;;;;;12.80;9.27;;;;;;;;;;5032780;28;20124;-58
2022/07/01 00:27:39;;;;;;;11.13;9.18;;;;;;;;;;5032768;28;20140;-57
2022/07/01 00:30:06;;;;;;;12.23;9.95;;;;;;;;;;5030100;28;20034;-58
2022/07/01 00:32:32;;;;;;;12.38;9.77;;;;;;;;;;5032199;28;20033;-58
2022/07/01 00:34:58;;;;;;;12.48;9.48;;;;;;;;;;5040739;28;20029;-58
2022/07/01 00:37:24;;;;;;;11.05;9.35;;;;;;;;;;5037167;28;20033;-58
2022/07/01 00:39:50;;;;;;;15.63;9.10;;;;;;;;;;5032253;28;20029;-58
2022/07/01 00:42:16;;;;;;;11.82;9.07;;;;;;;;;;5032478;28;20028;-56
2022/07/01 00:44:42;;;;;;;13.45;10.05;;;;;;;;;;5032251;28;20502;-56
2022/07/01 00:47:10;;;;;;;12.10;9.43;;;;;;;;;;5031977;28;20401;-58
2022/07/01 00:49:36;;;;;;;16.45;9.00;;;;;;;;;;5032056;28;20576;-56
2022/07/01 00:52:02;;;;;;;12.68;9.90;;;;;;;;;;5032057;28;20034;-58
2022/07/01 00:54:29;;;;;;;12.10;9.88;;;;;;;;;;5032142;28;20034;-56
2022/07/01 00:56:56;;;;;;;16.10;10.32;;;;;;;;;;5032341;28;20021;-57
2022/07/01 00:59:22;;;;;;;13.70;10.77;;;;;;;;;;5032335;28;20025;-57
2022/07/01 01:01:48;;;;;;;11.18;9.25;;;;;;;;;;5045292;28;20453;-57
2022/07/01 01:04:14;;;;;;;12.30;9.65;;;;;;;;;;5031738;28;20461;-58
2022/07/01 01:06:41;;;;;;;14.90;9.77;;;;;;;;;;5031600;28;20104;-57
2022/07/01 01:09:07;;;;;;;15.52;10.00;;;;;;;;;;5032029;28;20515;-59
2022/07/01 01:11:33;;;;;;;11.90;9.27;;;;;;;;;;5031494;28;20029;-58
2022/07/01 01:13:59;;;;;;;13.52;10.30;;;;;;;;;;5031599;28;20469;-58
2022/07/01 01:16:25;;;;;;;15.45;11.38;;;;;;;;;;5031575;28;20029;-58
2022/07/01 01:18:51;;;;;;;11.55;9.73;;;;;;;;;;5031641;28;20473;-57
2022/07/01 01:21:18;;;;;;;13.82;10.65;;;;;;;;;;5031369;28;20022;-58
2022/07/01 01:23:44;;;;;;;14.02;10.10;;;;;;;;;;5031836;28;20511;-58
2022/07/01 01:26:20;;;;;;;13.85;10.52;;;;;;;;;;5031288;28;20046;-58
2022/07/01 01:28:46;;;;;;;14.75;10.65;;;;;;;;;;5026952;28;20100;-59
2022/07/01 01:31:12;;;;;;;13.40;11.35;;;;;;;;;;5030827;28;20029;-58
2022/07/01 01:33:39;;;;;;;12.88;9.63;;;;;;;;;;5031474;28;20113;-58
2022/07/01 01:36:06;;;;;;;13.40;11.15;;;;;;;;;;5014107;28;20384;-58
2022/07/01 01:38:32;;;;;;;11.82;9.98;;;;;;;;;;5031560;28;20033;-58
2022/07/01 01:40:58;;;;;;;12.50;10.25;;;;;;;;;;5035699;28;20025;-58
2022/07/01 01:43:24;;;;;;;12.48;9.70;;;;;;;;;;5038569;28;20028;-58
2022/07/01 01:45:50;;;;;;;10.48;8.75;;;;;;;;;;5031149;28;20516;-57
2022/07/01 01:48:16;;;;;;;12.68;9.10;;;;;;;;;;5024730;28;20029;-58
2022/07/01 01:50:42;;;;;;;14.90;11.35;;;;;;;;;;5030308;28;20025;-58
2022/07/01 01:53:08;;;;;;;14.32;11.07;;;;;;;;;;5031301;28;20473;-56
2022/07/01 01:55:34;;;;;;;13.50;10.63;;;;;;;;;;5031053;28;20026;-57
2022/07/01 01:58:00;;;;;;;15.50;11.25;;;;;;;;;;5030630;28;20030;-57
2022/07/01 02:00:26;;;;;;;14.35;10.48;;;;;;;;;;5033923;28;20017;-58
2022/07/01 02:02:52;;;;;;;16.80;11.52;;;;;;;;;;5016691;28;20044;-58
2022/07/01 02:05:18;;;;;;;15.65;12.07;;;;;;;;;;5036304;28;20017;-55
2022/07/01 02:07:44;;;;;;;18.67;12.52;;;;;;;;;;5048025;28;20059;-58
2022/07/01 02:10:10;;;;;;;19.13;14.20;;;;;;;;;;5030577;28;20029;-57
2022/07/01 02:12:37;;;;;;;15.00;12.60;;;;;;;;;;5030633;28;20144;-58
2022/07/01 02:15:03;;;;;;;17.10;13.65;;;;;;;;;;5029186;28;20112;-57
2022/07/01 02:17:29;;;;;;;17.20;12.93;;;;;;;;;;5030510;28;20040;-57
2022/07/01 02:19:55;;;;;;;18.90;13.88;;;;;;;;;;5030558;28;20509;-57
2022/07/01 02:22:21;;;;;;;23.92;15.00;;;;;;;;;;5030738;28;20044;-58
2022/07/01 02:24:47;;;;;;;14.63;10.80;;;;;;;;;;5030903;28;20021;-58
2022/07/01 02:27:13;;;;;;;15.48;11.23;;;;;;;;;;5030238;28;20777;-58
2022/07/01 02:29:41;;;;;;;18.42;11.68;;;;;;;;;;5022430;28;20032;-58
2022/07/01 02:32:07;;;;;;;15.30;11.82;;;;;;;;;;5030445;28;20604;-58
2022/07/01 02:34:33;;;;;;;15.10;11.43;;;;;;;;;;5030872;28;20025;-57
2022/07/01 02:36:59;;;;;;;14.98;11.63;;;;;;;;;;5031596;28;20500;-58
2022/07/01 02:39:25;;;;;;;16.27;12.73;;;;;;;;;;5043222;28;20034;-59
2022/07/01 02:44:36;;;;;;;15.38;11.80;;;;;;;;;;5030461;28;20064;-58
2022/07/01 02:47:02;;;;;;;17.35;12.40;;;;;;;;;;5029981;28;20029;-58
2022/07/01 02:49:28;;;;;;;15.25;11.63;;;;;;;;;;5029804;28;20049;-56
2022/07/01 02:51:57;;;;;;;17.63;12.93;;;;;;;;;;5030089;28;20057;-57
2022/07/01 02:54:23;;;;;;;17.98;13.02;;;;;;;;;;5030447;28;20026;-56
2022/07/01 02:56:49;;;;;;;18.13;13.13;;;;;;;;;;5029627;28;20049;-57
2022/07/01 02:59:15;;;;;;;18.77;13.88;;;;;;;;;;5028353;28;20466;-59
2022/07/01 03:01:41;;;;;;;19.13;15.15;;;;;;;;;;5029943;28;20412;-58
2022/07/01 03:04:07;;;;;;;18.25;13.95;;;;;;;;;;5029883;28;20018;-58
2022/07/01 03:06:33;;;;;;;21.05;14.82;;;;;;;;;;5030044;28;20089;-56
2022/07/01 03:08:59;;;;;;;17.17;13.52;;;;;;;;;;5030336;28;20033;-57
2022/07/01 03:11:25;;;;;;;23.17;16.27;;;;;;;;;;5029371;28;20080;-57
2022/07/01 03:13:51;;;;;;;24.60;15.80;;;;;;;;;;5012278;28;20109;-56
2022/07/01 03:16:17;;;;;;;26.90;16.95;;;;;;;;;;5038264;28;20103;-57
2022/07/01 03:18:43;;;;;;;22.88;16.42;;;;;;;;;;5030333;28;20398;-56
2022/07/01 03:21:09;;;;;;;20.00;15.82;;;;;;;;;;5030025;28;20025;-58
2022/07/01 03:23:35;;;;;;;19.83;15.38;;;;;;;;;;5030182;28;20532;-56
2022/07/01 03:26:01;;;;;;;21.27;15.57;;;;;;;;;;5032310;28;20057;-56
2022/07/01 03:28:27;;;;;;;21.77;15.93;;;;;;;;;;5033326;28;20565;-58
2022/07/01 03:30:53;;;;;;;22.27;16.42;;;;;;;;;;5041844;28;20036;-58
2022/07/01 03:33:19;;;;;;;23.05;17.45;;;;;;;;;;5038456;28;20029;-58
2022/07/01 03:35:45;;;;;;;24.55;17.35;;;;;;;;;;5033874;28;20543;-58
2022/07/01 03:38:11;;;;;;;22.83;16.75;;;;;;;;;;5033060;28;20511;-58
2022/07/01 03:40:38;;;;;;;22.23;16.27;;;;;;;;;;5033254;28;20029;-58
2022/07/01 03:43:04;;;;;;;23.85;17.58;;;;;;;;;;5033416;28;20100;-58
2022/07/01 03:45:30;;;;;;;21.08;16.33;;;;;;;;;;5033413;28;20037;-57
2022/07/01 03:47:56;;;;;;;22.60;16.90;;;;;;;;;;5033186;28;20029;-55
2022/07/01 03:50:23;;;;;;;21.67;17.02;;;;;;;;;;5030454;28;20112;-58
2022/07/01 03:54:29;;;;;;;21.73;15.75;;;;;;;;;;5033119;28;20084;-57
2022/07/01 03:55:35;;;;;;;22.80;17.42;;;;;;;;;;5033280;28;20033;-58
2022/07/01 03:58:01;;;;;;;22.20;17.63;;;;;;;;;;5032974;28;20104;-58
2022/07/01 04:00:27;;;;;;;21.65;16.48;;;;;;;;;;5039618;28;20072;-59
2022/07/01 04:02:53;;;;;;;23.65;17.13;;;;;;;;;;5031172;28;20034;-58
2022/07/01 04:05:19;;;;;;;23.50;16.83;;;;;;;;;;5015360;28;20026;-58
2022/07/01 04:07:45;;;;;;;23.10;17.52;;;;;;;;;;5032861;28;20036;-59
2022/07/01 04:10:12;;;;;;;23.77;17.67;;;;;;;;;;5032939;28;20028;-58
2022/07/01 04:12:38;;;;;;;24.17;17.02;;;;;;;;;;5032945;28;20157;-58
2022/07/01 04:15:05;;;;;;;20.70;16.08;;;;;;;;;;5044412;28;20089;-58
2022/07/01 04:17:31;;;;;;;23.60;17.40;;;;;;;;;;5032442;28;20029;-58
2022/07/01 04:19:57;;;;;;;25.45;17.63;;;;;;;;;;5032090;28;20033;-57
2022/07/01 04:22:38;;;;;;;20.83;16.73;;;;;;;;;;5032972;28;20048;-59
2022/07/01 04:25:04;;;;;;;21.95;16.98;;;;;;;;;;5032951;28;20072;-58
2022/07/01 04:27:31;;;;;;;21.35;15.95;;;;;;;;;;5032570;28;20041;-58
2022/07/01 04:29:57;;;;;;;24.83;17.45;;;;;;;;;;5024821;28;20029;-57
2022/07/01 04:32:23;;;;;;;21.52;16.63;;;;;;;;;;5031059;28;20095;-58
2022/07/01 04:34:50;;;;;;;19.40;15.77;;;;;;;;;;5031816;28;20033;-58
2022/07/01 04:37:16;;;;;;;25.17;17.52;;;;;;;;;;5028825;28;20089;-58
2022/07/01 04:39:42;;;;;;;23.00;16.52;;;;;;;;;;5032419;28;20025;-58
2022/07/01 04:42:08;;;;;;;21.17;16.23;;;;;;;;;;5031383;28;20025;-58
2022/07/01 04:44:35;;;;;;;21.33;16.50;;;;;;;;;;5008732;28;20121;-57
2022/07/01 04:47:01;;;;;;;22.90;16.30;;;;;;;;;;5030196;28;20440;-59
2022/07/01 04:49:28;;;;;;;19.67;14.43;;;;;;;;;;5031987;28;20767;-59
2022/07/01 04:51:54;;;;;;;22.15;16.52;;;;;;;;;;5032131;28;20083;-59
2022/07/01 04:54:20;;;;;;;22.33;14.68;;;;;;;;;;5031578;28;20036;-58
2022/07/01 04:56:46;;;;;;;22.77;16.02;;;;;;;;;;5031596;28;20511;-58
2022/07/01 04:59:13;;;;;;;26.25;15.77;;;;;;;;;;5037698;28;20457;-58
2022/07/01 05:01:40;;;;;;;19.20;14.77;;;;;;;;;;5041828;28;20100;-59
2022/07/01 05:04:06;;;;;;;20.08;15.80;;;;;;;;;;5032154;28;20030;-59
2022/07/01 05:06:33;;;;;;;20.10;16.58;;;;;;;;;;5031256;28;20033;-59
2022/07/01 05:08:59;;;;;;;23.02;17.10;;;;;;;;;;5031927;28;20037;-57
2022/07/01 05:11:25;;;;;;;23.15;16.85;;;;;;;;;;5030942;28;20026;-58
2022/07/01 05:13:52;;;;;;;21.88;16.45;;;;;;;;;;5031750;28;20032;-59
2022/07/01 05:16:18;;;;;;;25.35;17.48;;;;;;;;;;5031287;28;20033;-58
2022/07/01 05:24:14;;;;;;;21.10;15.88;;;;;;;;;;5023666;28;20092;-58
2022/07/01 05:26:40;;;;;;;20.90;15.50;;;;;;;;;;5028311;28;20041;-57
2022/07/01 05:29:06;;;;;;;20.25;15.68;;;;;;;;;;5029610;28;20048;-59
2022/07/01 05:31:32;;;;;;;22.50;15.05;;;;;;;;;;5025478;28;20025;-59
2022/07/01 05:33:58;;;;;;;20.33;14.90;;;;;;;;;;5030330;28;20033;-58
2022/07/01 05:36:24;;;;;;;21.88;14.60;;;;;;;;;;5027987;28;20025;-59
2022/07/01 05:38:50;;;;;;;20.65;16.00;;;;;;;;;;5031235;28;20036;-59
2022/07/01 05:41:16;;;;;;;20.27;15.55;;;;;;;;;;5032144;28;20717;-57
2022/07/01 05:43:42;;;;;;;22.58;15.73;;;;;;;;;;5027602;28;20553;-58
2022/07/01 05:46:08;;;;;;;19.90;15.70;;;;;;;;;;5018803;28;20405;-56
2022/07/01 05:48:34;;;;;;;23.33;16.42;;;;;;;;;;5015534;28;20109;-58
2022/07/01 05:51:00;;;;;;;21.67;16.58;;;;;;;;;;5029946;28;20040;-58
2022/07/01 05:53:26;;;;;;;23.73;16.13;;;;;;;;;;5030989;28;20029;-58
2022/07/01 05:55:52;;;;;;;22.80;15.68;;;;;;;;;;5018081;28;20026;-58
2022/07/01 05:58:18;;;;;;;19.27;14.93;;;;;;;;;;5028121;28;20036;-58
2022/07/01 06:00:44;;;;;;;20.17;14.80;;;;;;;;;;5024929;28;20021;-58
2022/07/01 06:03:11;;;;;;;21.63;15.90;;;;;;;;;;5031292;28;20041;-58
2022/07/01 06:05:38;;;;;;;27.98;15.77;;;;;;;;;;5030860;28;20439;-58
2022/07/01 06:08:04;;;;;;;21.45;17.15;;;;;;;;;;5030465;28;20108;-59
2022/07/01 06:10:30;;;;;;;22.00;16.23;;;;;;;;;;5028638;28;20030;-57
2022/07/01 06:12:57;;;;;;;19.95;15.57;;;;;;;;;;5030247;28;20583;-57
2022/07/01 06:15:23;;;;;;;18.92;15.85;;;;;;;;;;5030931;28;20025;-57
2022/07/01 06:17:49;;;;;;;21.98;15.63;;;;;;;;;;5030839;28;20419;-59
2022/07/01 06:20:15;;;;;;;20.77;15.55;;;;;;;;;;5030625;28;20021;-58
2022/07/01 06:22:41;;;;;;;20.88;16.05;;;;;;;;;;5030314;28;20027;-58
2022/07/01 06:25:07;;;;;;;22.10;15.85;;;;;;;;;;5029065;28;20022;-58
2022/07/01 06:27:39;;;;;;;20.58;16.42;;;;;;;;;;5028078;28;20558;-58
2022/07/01 06:30:05;;;;;;;23.13;15.43;;;;;;;;;;5027322;28;20031;-58
2022/07/01 06:32:31;;;;;;;19.75;14.95;;;;;;;;;;5029920;28;20061;-58
2022/07/01 06:34:57;;;;;;;21.98;15.50;;;;;;;;;;5026251;28;20058;-59
2022/07/01 06:37:23;;;;;;;18.70;14.25;;;;;;;;;;5026530;28;20037;-58
2022/07/01 06:39:49;;;;;;;22.23;15.05;;;;;;;;;;5027561;28;20030;-58
2022/07/01 06:42:15;;;;;;;17.10;13.57;;;;;;;;;;5029705;28;20053;-58
2022/07/01 06:44:41;;;;;;;18.95;14.60;;;;;;;;;;5028897;28;20149;-58
2022/07/01 06:47:07;;;;;;;19.55;13.35;;;;;;;;;;5029664;28;20132;-57
2022/07/01 06:49:33;;;;;;;18.55;12.63;;;;;;;;;;5028869;28;20072;-59
2022/07/01 06:51:59;;;;;;;16.58;12.65;;;;;;;;;;5038046;28;20456;-58
2022/07/01 06:54:25;;;;;;;15.82;12.70;;;;;;;;;;5029770;28;20033;-59
2022/07/01 06:56:51;;;;;;;21.73;13.02;;;;;;;;;;5024758;28;20039;-58
2022/07/01 06:59:17;;;;;;;14.65;11.82;;;;;;;;;;5029603;28;20018;-59
2022/07/01 07:01:43;;;;;;;16.15;12.80;;;;;;;;;;5032844;28;20029;-56
2022/07/01 07:04:09;;;;;;;16.13;12.60;;;;;;;;;;5002471;28;20113;-57
2022/07/01 07:06:35;;;;;;;14.77;11.30;;;;;;;;;;5032243;28;20025;-58
2022/07/01 07:09:01;;;;;;;16.05;11.23;;;;;;;;;;5033097;28;20033;-60
2022/07/01 07:11:27;;;;;;;20.58;13.13;;;;;;;;;;5033225;28;20041;-58
2022/07/01 07:13:53;;;;;;;14.85;11.07;;;;;;;;;;5031602;28;20137;-58
2022/07/01 07:16:23;;;;;;;13.10;9.85;;;;;;;;;;5024751;28;20066;-58
2022/07/01 07:18:49;;;;;;;16.92;10.65;;;;;;;;;;5028533;28;20029;-57
2022/07/01 07:21:15;;;;;;;12.73;9.82;;;;;;;;;;5030554;28;20029;-56
2022/07/01 07:23:42;;;;;;;14.70;9.68;;;;;;;;;;5032835;28;20056;-56
2022/07/01 07:26:08;;;;;;;13.60;9.65;;;;;;;;;;5033070;28;20041;-56
2022/07/01 07:28:34;;;;;;;8.55;7.60;;;;;;;;;;5032491;28;20124;-56
2022/07/01 07:31:00;;;;;;;10.02;7.80;;;;;;;;;;5032541;28;20025;-58
2022/07/01 07:33:26;;;;;;;25.73;12.13;;;;;;;;;;5025331;28;20499;-57
2022/07/01 07:35:52;;;;;;;12.60;7.88;;;;;;;;;;5032026;28;20392;-58
2022/07/01 07:38:18;;;;;;;9.10;6.78;;;;;;;;;;5033192;28;20083;-59
2022/07/01 07:40:44;;;;;;;8.90;7.47;;;;;;;;;;5032238;28;20033;-59
2022/07/01 07:43:10;;;;;;;39.30;15.85;;;;;;;;;;5032436;28;20552;-58
2022/07/01 07:45:40;;;;;;;41.65;17.88;;;;;;;;;;5031304;28;20021;-57
2022/07/01 07:48:06;;;;;;;9.20;6.90;;;;;;;;;;5031361;28;20029;-58
2022/07/01 07:50:33;;;;;;;11.18;6.85;;;;;;;;;;5032473;28;20021;-58
2022/07/01 07:52:59;;;;;;;10.05;6.93;;;;;;;;;;5032808;28;20116;-59
2022/07/01 07:55:27;;;;;;;9.48;5.40;;;;;;;;;;5030803;28;20025;-59
2022/07/01 07:57:54;;;;;;;7.40;5.38;;;;;;;;;;5031880;28;20037;-58
2022/07/01 08:00:20;;;;;;;10.88;5.93;;;;;;;;;;5032185;28;20022;-58
2022/07/01 08:02:46;;;;;;;13.10;6.03;;;;;;;;;;5034476;28;20040;-58
2022/07/01 08:05:12;;;;;;;7.88;5.78;;;;;;;;;;5031943;28;20030;-59
2022/07/01 08:07:38;;;;;;;14.88;7.75;;;;;;;;;;5031840;28;20037;-58
2022/07/01 08:10:05;;;;;;;7.68;5.57;;;;;;;;;;5031921;28;20446;-59
2022/07/01 08:12:31;;;;;;;18.17;7.03;;;;;;;;;;5030201;28;20099;-57
2022/07/01 08:14:57;;;;;;;8.18;5.13;;;;;;;;;;5032359;28;20088;-57
2022/07/01 08:17:23;;;;;;;6.32;4.97;;;;;;;;;;5028725;28;20120;-57
2022/07/01 08:19:50;;;;;;;6.55;4.88;;;;;;;;;;5031684;28;20033;-58
2022/07/01 08:22:16;;;;;;;5.40;4.40;;;;;;;;;;5030366;28;20029;-58
2022/07/01 08:24:42;;;;;;;7.60;4.25;;;;;;;;;;5031662;28;20045;-56
2022/07/01 08:27:08;;;;;;;7.25;5.13;;;;;;;;;;5031974;28;20180;-56
2022/07/01 08:29:34;;;;;;;6.47;4.15;;;;;;;;;;5031634;28;20052;-59
2022/07/01 08:32:00;;;;;;;7.88;4.55;;;;;;;;;;5031339;28;20384;-58
2022/07/01 08:34:26;;;;;;;9.82;4.18;;;;;;;;;;5030897;28;20037;-58
2022/07/01 08:36:52;;;;;;;6.43;3.90;;;;;;;;;;5031474;28;20040;-57
2022/07/01 08:39:18;;;;;;;5.00;3.47;;;;;;;;;;5013334;28;20385;-57
2022/07/01 08:41:44;;;;;;;3.75;2.25;;;;;;;;;;5032147;28;20033;-58
2022/07/01 08:44:10;;;;;;;3.58;2.38;;;;;;;;;;5031210;28;20438;-56
2022/07/01 08:46:36;;;;;;;2.95;1.67;;;;;;;;;;5030903;28;20116;-57
2022/07/01 08:49:03;;;;;;;4.10;1.63;;;;;;;;;;5031062;28;20120;-59
2022/07/01 08:51:29;;;;;;;2.85;1.65;;;;;;;;;;5030222;28;20431;-58
2022/07/01 08:53:55;;;;;;;4.60;2.10;;;;;;;;;;5012681;28;20040;-58
2022/07/01 08:56:40;;;;;;;5.18;1.92;;;;;;;;;;5024646;28;20038;-56
2022/07/01 08:59:06;;;;;;;2.90;1.90;;;;;;;;;;5031252;28;20021;-57
2022/07/01 09:01:33;;;;;;;4.72;1.50;;;;;;;;;;5030645;28;20022;-59
2022/07/01 09:04:13;;;;;;;2.30;1.52;;;;;;;;;;5030208;28;20083;-58
2022/07/01 09:06:40;;;;;;;2.78;1.30;;;;;;;;;;5031332;28;20030;-57
2022/07/01 09:09:16;;;;;;;2.05;1.30;;;;;;;;;;5029981;28;20048;-56
2022/07/01 09:11:55;;;;;;;7.65;1.52;;;;;;;;;;5028096;28;20079;-58
2022/07/01 09:14:23;;;;;;;3.85;1.13;;;;;;;;;;5030382;28;20033;-56
2022/07/01 09:16:55;;;;;;;1.10;0.60;;;;;;;;;;5031045;28;20026;-58
2022/07/01 09:19:21;;;;;;;4.85;1.13;;;;;;;;;;5030194;28;20500;-58
2022/07/01 09:21:56;;;;;;;3.90;0.90;;;;;;;;;;5030579;28;20025;-58
2022/07/01 09:24:29;;;;;;;0.90;0.70;;;;;;;;;;5030716;28;20409;-58
2022/07/01 09:27:00;;;;;;;1.23;0.85;;;;;;;;;;5020533;28;20113;-57
2022/07/01 09:29:31;;;;;;;4.60;1.20;;;;;;;;;;5010522;28;20576;-58
2022/07/01 09:31:57;;;;;;;1.85;1.10;;;;;;;;;;5008931;28;20052;-58
2022/07/01 09:34:23;;;;;;;1.30;1.10;;;;;;;;;;5009467;28;20033;-56
2022/07/01 09:36:56;;;;;;;5.68;1.50;;;;;;;;;;5009515;28;20034;-56
2022/07/01 09:39:22;;;;;;;2.13;1.83;;;;;;;;;;5010809;28;20018;-58
2022/07/01 09:41:49;;;;;;;2.20;1.45;;;;;;;;;;5010113;28;20013;-57
2022/07/01 09:44:15;;;;;;;2.50;1.40;;;;;;;;;;5010741;28;20021;-57
2022/07/01 09:46:57;;;;;;;2.05;1.23;;;;;;;;;;5010413;28;20445;-57
2022/07/01 09:49:24;;;;;;;1.35;1.20;;;;;;;;;;5009305;28;20104;-58
2022/07/01 09:51:51;;;;;;;2.20;1.48;;;;;;;;;;5010183;28;20045;-58
2022/07/01 09:54:17;;;;;;;2.17;1.20;;;;;;;;;;5003645;28;20030;-57
2022/07/01 09:56:43;;;;;;;4.28;1.50;;;;;;;;;;5003773;28;20037;-57
2022/07/01 09:59:09;;;;;;;2.75;1.98;;;;;;;;;;5011342;28;20394;-56
2022/07/01 10:01:36;;;;;;;2.05;1.48;;;;;;;;;;5010755;28;20029;-57
2022/07/01 10:04:04;;;;;;;5.35;1.55;;;;;;;;;;5011464;28;20022;-57
2022/07/01 10:06:39;;;;;;;2.35;1.75;;;;;;;;;;4992986;28;20037;-58
2022/07/01 10:09:24;;;;;;;3.50;1.50;;;;;;;;;;5011450;28;20037;-59
2022/07/01 10:12:08;;;;;;;2.53;1.48;;;;;;;;;;5010653;28;20038;-57
2022/07/01 10:14:38;;;;;;;1.70;1.33;;;;;;;;;;5011220;28;20104;-57
2022/07/01 10:17:04;;;;;;;1.33;1.00;;;;;;;;;;5011322;28;20478;-56
2022/07/01 10:19:31;;;;;;;2.10;1.38;;;;;;;;;;5011116;28;20481;-57
2022/07/01 10:22:00;;;;;;;2.30;1.00;;;;;;;;;;5010420;28;20037;-58
2022/07/01 10:24:27;;;;;;;1.00;0.90;;;;;;;;;;5011050;28;20500;-58
2022/07/01 10:26:58;;;;;;;1.70;0.80;;;;;;;;;;5023817;28;20050;-58
2022/07/01 10:29:38;;;;;;;2.30;0.95;;;;;;;;;;5019873;28;20395;-58
2022/07/01 10:32:22;;;;;;;1.77;0.90;;;;;;;;;;5030671;28;20033;-57
2022/07/01 10:34:49;;;;;;;5.63;1.35;;;;;;;;;;5031119;28;20037;-58
2022/07/01 10:37:16;;;;;;;6.45;2.03;;;;;;;;;;5034640;28;20101;-55
2022/07/01 10:39:56;;;;;;;7.22;2.30;;;;;;;;;;5033438;28;20029;-58
2022/07/01 10:42:27;;;;;;;7.18;2.45;;;;;;;;;;5034797;28;20025;-57
2022/07/01 10:45:04;;;;;;;7.65;1.98;;;;;;;;;;5034888;28;20034;-59
2022/07/01 10:47:30;;;;;;;7.22;2.25;;;;;;;;;;5034537;28;20033;-56
2022/07/01 10:49:57;;;;;;;4.68;1.83;;;;;;;;;;5034065;28;20109;-57
2022/07/01 10:52:24;;;;;;;5.53;1.77;;;;;;;;;;5033395;28;20041;-57
2022/07/01 10:54:53;;;;;;;3.45;1.33;;;;;;;;;;5034312;28;20036;-55
2022/07/01 10:57:19;;;;;;;2.83;1.45;;;;;;;;;;5034599;28;20029;-56
2022/07/01 11:00:18;;;;;;;3.30;1.60;;;;;;;;;;5034277;28;20029;-56
2022/07/01 11:02:44;;;;;;;2.97;1.30;;;;;;;;;;4991152;28;20037;-56
2022/07/01 11:05:14;;;;;;;2.38;1.40;;;;;;;;;;5037120;28;20034;-57
2022/07/01 11:07:48;;;;;;;2.90;1.48;;;;;;;;;;5034193;28;20508;-56
2022/07/01 11:10:19;;;;;;;5.22;2.10;;;;;;;;;;5034141;28;20088;-56
2022/07/01 11:12:48;;;;;;;3.35;2.00;;;;;;;;;;5034487;28;20035;-56
2022/07/01 11:15:15;;;;;;;3.58;1.63;;;;;;;;;;5034349;28;20092;-57
2022/07/01 11:17:45;;;;;;;1.83;1.60;;;;;;;;;;5033176;28;20039;-58
2022/07/01 11:20:11;;;;;;;1.63;1.50;;;;;;;;;;5039705;28;20492;-55
2022/07/01 11:22:37;;;;;;;3.72;1.50;;;;;;;;;;5040615;28;20017;-57
2022/07/01 11:25:05;;;;;;;2.40;1.60;;;;;;;;;;5020926;28;20572;-57
2022/07/01 11:27:31;;;;;;;2.70;1.58;;;;;;;;;;5033193;28;20052;-57
2022/07/01 11:30:04;;;;;;;2.75;1.70;;;;;;;;;;5022745;28;20029;-57
2022/07/01 11:32:35;;;;;;;1.73;1.42;;;;;;;;;;5033620;28;20484;-58
2022/07/01 11:35:02;;;;;;;2.47;1.70;;;;;;;;;;5033781;28;20065;-57
2022/07/01 11:40:17;;;;;;;3.17;2.47;;;;;;;;;;5033278;28;20037;-57
2022/07/01 11:42:44;;;;;;;3.25;2.20;;;;;;;;;;5033382;28;20506;-58
2022/07/01 11:45:22;;;;;;;4.50;2.35;;;;;;;;;;5032550;28;20499;-59
2022/07/01 11:47:48;;;;;;;3.10;2.15;;;;;;;;;;5028122;28;20389;-58
2022/07/01 11:50:15;;;;;;;2.17;1.90;;;;;;;;;;5040574;28;20058;-59
2022/07/01 11:52:41;;;;;;;1.98;1.77;;;;;;;;;;5032859;28;20057;-58
2022/07/01 11:55:08;;;;;;;2.72;2.20;;;;;;;;;;5033360;28;20030;-57
2022/07/01 11:57:34;;;;;;;4.82;2.25;;;;;;;;;;5028925;28;20030;-57
2022/07/01 12:00:08;;;;;;;3.55;2.08;;;;;;;;;;5029891;28;20034;-58
2022/07/01 12:02:34;;;;;;;3.05;2.22;;;;;;;;;;5027421;28;20109;-57
2022/07/01 12:05:00;;;;;;;2.78;2.05;;;;;;;;;;5032097;28;20033;-58
2022/07/01 12:07:27;;;;;;;3.75;2.17;;;;;;;;;;5033088;28;20022;-56
2022/07/01 12:09:53;;;;;;;3.17;2.10;;;;;;;;;;5030140;28;20041;-58
2022/07/01 12:12:19;;;;;;;3.58;2.45;;;;;;;;;;5032172;28;20468;-56
2022/07/01 12:14:53;;;;;;;4.45;2.60;;;;;;;;;;5031933;28;20021;-58
2022/07/01 12:17:19;;;;;;;4.20;3.20;;;;;;;;;;5032383;28;20429;-59
2022/07/01 12:19:48;;;;;;;4.38;2.20;;;;;;;;;;5032507;28;20028;-57
2022/07/01 12:22:16;;;;;;;5.00;2.50;;;;;;;;;;5032073;28;20022;-57
2022/07/01 12:24:42;;;;;;;3.75;2.67;;;;;;;;;;5031022;28;20033;-58
2022/07/01 12:27:09;;;;;;;4.82;2.90;;;;;;;;;;5032304;28;20053;-59
2022/07/01 12:29:44;;;;;;;3.38;2.97;;;;;;;;;;5029343;28;20040;-59
2022/07/01 12:32:11;;;;;;;5.45;3.10;;;;;;;;;;5029046;28;20029;-58
2022/07/01 12:34:40;;;;;;;7.15;3.17;;;;;;;;;;5030837;28;20041;-59
2022/07/01 12:37:11;;;;;;;4.70;3.08;;;;;;;;;;5028491;28;20033;-58
2022/07/01 12:39:53;;;;;;;5.82;3.60;;;;;;;;;;5019530;28;20446;-58
2022/07/01 12:42:20;;;;;;;5.05;3.90;;;;;;;;;;5027004;28;20140;-59
2022/07/01 12:44:46;;;;;;;3.53;2.92;;;;;;;;;;5013286;28;20049;-58
2022/07/01 12:47:42;;;;;;;6.30;4.03;;;;;;;;;;5030549;28;20025;-59
2022/07/01 12:50:10;;;;;;;7.63;3.30;;;;;;;;;;5018756;28;20041;-58
2022/07/01 12:52:38;;;;;;;4.95;3.15;;;;;;;;;;5029422;28;20025;-59
2022/07/01 12:55:17;;;;;;;5.88;3.60;;;;;;;;;;5021319;28;20104;-58
2022/07/01 12:57:43;;;;;;;4.97;3.50;;;;;;;;;;5027329;28;20497;-57
2022/07/01 13:00:09;;;;;;;6.28;3.67;;;;;;;;;;5029822;28;20036;-58
2022/07/01 13:02:35;;;;;;;5.15;3.30;;;;;;;;;;5031594;28;20021;-59
2022/07/01 13:05:01;;;;;;;4.25;3.20;;;;;;;;;;5032177;28;20026;-58
2022/07/01 13:07:27;;;;;;;5.65;3.53;;;;;;;;;;5030256;28;20025;-58
2022/07/01 13:09:53;;;;;;;6.38;4.03;;;;;;;;;;5031643;28;20551;-58
2022/07/01 13:12:20;;;;;;;7.53;3.95;;;;;;;;;;5031205;28;20021;-57
2022/07/01 13:14:46;;;;;;;6.47;3.65;;;;;;;;;;5029688;28;20485;-58
2022/07/01 13:17:12;;;;;;;5.47;3.95;;;;;;;;;;5030904;28;20029;-59
2022/07/01 13:19:38;;;;;;;4.65;3.60;;;;;;;;;;5031623;28;20318;-58
2022/07/01 13:22:04;;;;;;;4.43;3.58;;;;;;;;;;5029427;28;20044;-59
2022/07/01 13:24:30;;;;;;;6.63;3.60;;;;;;;;;;5029959;28;20040;-57
2022/07/01 13:26:56;;;;;;;4.75;3.47;;;;;;;;;;5026217;28;20132;-59
2022/07/01 13:29:22;;;;;;;5.82;3.75;;;;;;;;;;5030586;28;20112;-58
2022/07/01 13:31:49;;;;;;;4.13;3.28;;;;;;;;;;5028287;28;20060;-59
2022/07/01 13:34:15;;;;;;;4.80;3.30;;;;;;;;;;5031007;28;20049;-58
2022/07/01 13:36:42;;;;;;;5.78;3.50;;;;;;;;;;5026276;28;20405;-59
2022/07/01 13:39:08;;;;;;;6.07;3.60;;;;;;;;;;5024676;28;20029;-58
2022/07/01 13:41:35;;;;;;;6.85;3.50;;;;;;;;;;5030311;28;20033;-58
2022/07/01 13:44:01;;;;;;;3.22;2.92;;;;;;;;;;5029968;28;20485;-58
2022/07/01 13:46:27;;;;;;;6.95;3.92;;;;;;;;;;5021330;28;20030;-59
2022/07/01 13:48:53;;;;;;;6.60;3.75;;;;;;;;;;5026444;28;20033;-58
2022/07/01 13:51:19;;;;;;;5.30;3.70;;;;;;;;;;5011224;28;20044;-58
2022/07/01 13:53:45;;;;;;;5.10;3.38;;;;;;;;;;5014165;28;20657;-56
2022/07/01 13:56:11;;;;;;;4.85;3.63;;;;;;;;;;5018060;28;20026;-55
2022/07/01 13:58:37;;;;;;;7.40;4.07;;;;;;;;;;5014014;28;20064;-56
2022/07/01 14:01:04;;;;;;;9.43;4.25;;;;;;;;;;5025780;28;20495;-57
2022/07/01 14:03:29;;;;;;;7.38;3.53;;;;;;;;;;5025179;28;20025;-56
2022/07/01 14:05:55;;;;;;;5.90;3.88;;;;;;;;;;5030471;28;20107;-57
2022/07/01 14:08:21;;;;;;;5.95;4.00;;;;;;;;;;5029602;28;20022;-57
2022/07/01 14:10:47;;;;;;;6.50;3.97;;;;;;;;;;5029404;28;20025;-56
2022/07/01 14:13:13;;;;;;;5.25;3.45;;;;;;;;;;5028808;28;20033;-59
2022/07/01 14:15:42;;;;;;;5.90;3.53;;;;;;;;;;5021758;28;20034;-58
2022/07/01 14:18:08;;;;;;;5.38;3.50;;;;;;;;;;5026091;28;20030;-59
2022/07/01 14:20:35;;;;;;;6.15;4.00;;;;;;;;;;5024579;28;20033;-59
2022/07/01 14:23:01;;;;;;;5.00;3.38;;;;;;;;;;5025372;28;21438;-58
2022/07/01 14:25:27;;;;;;;4.93;3.30;;;;;;;;;;5029856;28;20025;-58
2022/07/01 14:27:52;;;;;;;8.27;3.97;;;;;;;;;;5030018;28;20473;-57
2022/07/01 14:30:18;;;;;;;4.70;3.28;;;;;;;;;;5018589;28;20113;-57
2022/07/01 14:32:44;;;;;;;7.32;3.30;;;;;;;;;;5030983;28;20543;-58
2022/07/01 14:35:10;;;;;;;3.65;2.85;;;;;;;;;;5043713;28;20033;-58
2022/07/01 14:37:38;;;;;;;4.63;3.10;;;;;;;;;;5030318;28;20025;-56
2022/07/01 14:40:04;;;;;;;8.15;3.08;;;;;;;;;;5029881;28;20037;-59
2022/07/01 14:42:30;;;;;;;3.92;3.38;;;;;;;;;;5031104;28;20570;-57